Terminal Aerodrome Forecast
Issued by NWS Wilmington, OH

Home | Current Version | Previous Version | Text Only | Print | Product List | Glossary On
Versions: 1 2 3 4 5 6 7 8 9 10 11 12 13 14 15 16 17 18 19 20 21 22 23 24 25 26 27
000
FTUS41 KILN 251900 AAA
TAFDAY
TAF AMD
KDAY 251946Z 2520/2618 08006KT 5SM -RA BR OVC005
      TEMPO 2520/2522 2SM -RASN OVC012
     FM252200 05008KT 4SM -RASN OVC005
      TEMPO 2522/2601 1/2SM SN OVC010
     FM260100 04015G23KT 3/4SM -SN OVC006
     FM260300 02015G23KT 3SM -SN SCT015 OVC022
      TEMPO 2609/2611 P6SM NSW OVC015
     FM261100 36013KT P6SM OVC012
     FM261400 35010KT P6SM OVC010=

USA.gov is the U.S. government's official web portal to all federal, state and local government web resources and services.